Terminal Aerodrome Forecast
Issued by NWS Charleston, WV

Current Version | Previous Version | Graphics & Text | Print | Product List | Glossary On
Versions: 1 2 3 4 5 6 7 8 9 10 11 12 13 14 15 16 17 18 19 20 21 22 23 24 25 26 27 28 29
000
FTUS41 KRLX 211511 AAA
TAFEKN
TAF AMD
KEKN 211511Z 2115/2212 19010G25KT P6SM BKN040 WS020/20040KT
     FM211800 23010G17KT P6SM SHRA BKN035
     FM220100 33005KT 4SM SHRA BR BKN015
     FM220500 VRB03KT 1SM SHRA BR BKN010=

USA.gov is the U.S. government's official web portal to all federal, state and local government web resources and services.